createdAt,value
2023-03-17T00:02:10.016Z,72.40
2023-03-17T00:04:38.555Z,72.65
2023-03-17T00:07:08.646Z,72.43
2023-03-17T00:09:37.014Z,72.37
2023-03-17T00:12:11.674Z,72.17
2023-03-17T00:14:40.498Z,72.30
2023-03-17T00:17:14.182Z,72.18
2023-03-17T00:19:44.747Z,72.07
2023-03-17T00:22:19.868Z,71.94
2023-03-17T00:24:48.486Z,72.02
2023-03-17T00:27:17.951Z,71.99
2023-03-17T00:29:47.051Z,71.95
2023-03-17T00:32:19.425Z,71.68
2023-03-17T00:34:48.082Z,72.00
2023-03-17T00:37:20.172Z,72.06
2023-03-17T00:39:49.409Z,71.87
2023-03-17T00:42:17.738Z,71.97
2023-03-17T00:44:47.091Z,71.65
2023-03-17T00:47:15.693Z,71.91
2023-03-17T00:49:44.198Z,72.25
2023-03-17T00:52:13.111Z,71.91
2023-03-17T00:54:44.297Z,72.20
2023-03-17T00:57:13.078Z,71.96
2023-03-17T00:59:43.336Z,71.70
2023-03-17T01:02:13.888Z,72.05
2023-03-17T01:04:47.776Z,71.83
2023-03-17T01:07:21.751Z,72.05
2023-03-17T01:09:51.871Z,72.12
2023-03-17T01:12:20.713Z,72.19
2023-03-17T01:14:50.711Z,72.22
2023-03-17T01:17:23.103Z,72.42
2023-03-17T01:19:51.541Z,72.25
2023-03-17T01:22:20.444Z,72.38
2023-03-17T01:24:50.285Z,72.51
2023-03-17T01:27:19.693Z,72.48
2023-03-17T01:29:48.034Z,72.33
2023-03-17T01:32:16.405Z,72.31
2023-03-17T01:34:44.780Z,72.50
2023-03-17T01:37:13.532Z,72.30
2023-03-17T01:39:42.099Z,72.59
2023-03-17T01:42:12.010Z,72.17
2023-03-17T01:45:02.618Z,72.18
2023-03-17T01:47:32.123Z,72.38
2023-03-17T01:50:06.264Z,72.47
2023-03-17T01:52:36.529Z,72.13
2023-03-17T01:55:08.046Z,72.48
2023-03-17T01:57:42.410Z,72.46
2023-03-17T02:00:14.705Z,72.50
2023-03-17T02:02:46.317Z,72.57
2023-03-17T02:05:18.268Z,72.67
2023-03-17T02:07:47.922Z,72.77
2023-03-17T02:10:19.333Z,73.01
2023-03-17T02:12:52.484Z,73.22
2023-03-17T02:15:21.523Z,73.45
2023-03-17T02:17:50.712Z,73.54
2023-03-17T02:21:15.468Z,73.79
2023-03-17T02:23:45.436Z,73.96
2023-03-17T02:26:13.946Z,74.57
2023-03-17T02:28:46.047Z,74.39
2023-03-17T02:31:14.574Z,74.31
2023-03-17T02:33:43.580Z,74.44
2023-03-17T02:36:11.974Z,74.45
2023-03-17T02:38:40.412Z,74.90
2023-03-17T02:41:10.651Z,74.69
2023-03-17T02:43:39.013Z,74.68
2023-03-17T02:46:07.495Z,75.12
2023-03-17T02:48:38.135Z,74.94
2023-03-17T02:51:07.039Z,74.85
2023-03-17T02:53:35.547Z,74.94
2023-03-17T02:56:03.919Z,75.06
2023-03-17T02:58:33.749Z,75.12
2023-03-17T03:01:02.299Z,75.19
2023-03-17T03:03:31.181Z,75.23
2023-03-17T03:06:01.576Z,75.43
2023-03-17T03:08:32.120Z,75.69
2023-03-17T03:11:02.491Z,75.49
2023-03-17T03:13:31.209Z,75.41
2023-03-17T03:16:01.206Z,75.69
2023-03-17T03:18:29.680Z,75.61
2023-03-17T03:20:58.079Z,75.87
2023-03-17T03:23:26.431Z,76.24
2023-03-17T03:25:54.859Z,76.52
2023-03-17T03:28:23.287Z,76.76
2023-03-17T03:30:52.032Z,76.97
2023-03-17T03:33:21.808Z,77.07
2023-03-17T03:35:50.533Z,77.29
2023-03-17T03:38:19.308Z,77.65
2023-03-17T03:40:47.832Z,77.86
2023-03-17T03:43:23.406Z,77.69
2023-03-17T03:45:52.497Z,78.07
2023-03-17T03:48:23.162Z,78.15
2023-03-17T03:50:51.537Z,78.22
2023-03-17T03:53:20.095Z,78.12
2023-03-17T03:55:48.500Z,78.28
2023-03-17T03:58:16.922Z,78.14
2023-03-17T04:00:45.672Z,78.59
2023-03-17T04:03:14.502Z,78.24
2023-03-17T04:05:44.354Z,78.06
2023-03-17T04:08:12.836Z,78.06
2023-03-17T04:10:41.215Z,78.15
2023-03-17T04:13:09.673Z,77.99
2023-03-17T04:15:38.094Z,78.34
2023-03-17T04:18:06.664Z,78.26
2023-03-17T04:20:35.209Z,78.51
2023-03-17T04:23:04.990Z,78.31
2023-03-17T04:25:33.629Z,78.40
2023-03-17T04:28:02.054Z,78.68
2023-03-17T04:30:30.713Z,78.68
2023-03-17T04:32:59.420Z,78.17
2023-03-17T04:35:28.057Z,78.60
2023-03-17T04:37:56.484Z,78.61
2023-03-17T04:40:27.085Z,78.72
2023-03-17T04:42:55.534Z,78.90
2023-03-17T04:45:24.586Z,79.04
2023-03-17T04:47:53.022Z,79.18
2023-03-17T04:50:21.723Z,79.73
2023-03-17T04:52:50.202Z,79.88
2023-03-17T04:55:18.899Z,79.89
2023-03-17T04:57:48.743Z,79.84
2023-03-17T05:00:18.276Z,79.64
2023-03-17T05:02:46.809Z,79.76
2023-03-17T05:05:15.278Z,79.83
2023-03-17T05:07:44.936Z,79.80
2023-03-17T05:10:14.077Z,79.90
2023-03-17T05:12:42.725Z,80.30
2023-03-17T05:15:13.294Z,80.49
2023-03-17T05:17:41.974Z,80.56
2023-03-17T05:20:12.410Z,80.97
2023-03-17T05:22:41.738Z,80.83
2023-03-17T05:25:10.789Z,80.93
2023-03-17T05:27:39.536Z,81.13
2023-03-17T05:30:09.874Z,81.30
2023-03-17T05:32:40.463Z,81.46
2023-03-17T05:35:10.024Z,81.50
2023-03-17T05:37:38.759Z,81.47
2023-03-17T05:40:08.402Z,81.58
2023-03-17T05:42:36.932Z,81.72
2023-03-17T05:45:07.325Z,81.78
2023-03-17T05:47:36.237Z,81.73
2023-03-17T05:50:08.075Z,81.91
2023-03-17T05:52:36.897Z,81.97
2023-03-17T05:55:06.112Z,81.91
2023-03-17T05:57:34.888Z,82.00
2023-03-17T06:00:05.546Z,82.00
2023-03-17T06:02:35.479Z,82.32
2023-03-17T06:05:06.337Z,82.33
2023-03-17T06:07:48.497Z,82.47
2023-03-17T06:10:19.846Z,82.25
2023-03-17T06:12:48.556Z,82.65
2023-03-17T06:15:17.672Z,82.10
2023-03-17T06:17:46.140Z,82.30
2023-03-17T06:20:16.848Z,82.21
2023-03-17T06:23:02.292Z,81.74
2023-03-17T06:25:32.673Z,81.77
2023-03-17T06:28:02.424Z,81.46
2023-03-17T06:30:32.879Z,81.61
2023-03-17T06:33:02.147Z,81.31
2023-03-17T06:35:33.474Z,80.89
2023-03-17T06:38:03.568Z,80.52
2023-03-17T06:40:34.103Z,80.29
2023-03-17T06:43:03.134Z,80.17
2023-03-17T06:45:32.947Z,79.84
2023-03-17T06:48:01.741Z,79.85
2023-03-17T06:50:31.790Z,79.60
2023-03-17T06:53:00.399Z,79.43
2023-03-17T06:55:29.318Z,79.25
2023-03-17T06:57:59.030Z,78.87
2023-03-17T07:00:28.720Z,79.17
2023-03-17T07:02:57.824Z,78.64
2023-03-17T07:05:26.419Z,78.54
2023-03-17T07:07:56.114Z,78.03
2023-03-17T07:10:24.824Z,77.92
2023-03-17T07:12:53.469Z,77.61
2023-03-17T07:15:22.257Z,77.11
2023-03-17T07:17:50.692Z,76.95
2023-03-17T07:20:20.800Z,76.23
2023-03-17T07:22:49.332Z,76.07
2023-03-17T07:25:19.642Z,75.48
2023-03-17T07:27:48.126Z,75.19
2023-03-17T07:30:19.178Z,74.33
2023-03-17T07:32:48.204Z,73.72
2023-03-17T07:35:17.648Z,73.22
2023-03-17T07:37:46.208Z,72.09
2023-03-17T07:40:15.233Z,71.54
2023-03-17T07:42:45.534Z,70.58
2023-03-17T07:45:14.379Z,69.63
2023-03-17T07:47:43.042Z,68.56
2023-03-17T07:50:12.661Z,68.27
2023-03-17T07:52:41.889Z,67.48
2023-03-17T07:55:12.446Z,65.93
2023-03-17T07:57:41.423Z,65.38
2023-03-17T08:00:13.691Z,65.78
2023-03-17T08:02:42.361Z,64.27
2023-03-17T08:05:11.951Z,62.84
2023-03-17T08:07:40.728Z,62.05
2023-03-17T08:10:12.922Z,59.31
2023-03-17T08:12:42.684Z,55.46
2023-03-17T08:15:13.846Z,52.41
2023-03-17T08:17:42.276Z,48.17
2023-03-17T08:20:13.005Z,47.27
2023-03-17T08:22:41.952Z,45.35
2023-03-17T08:25:11.480Z,42.98
2023-03-17T08:27:40.735Z,43.87
2023-03-17T08:30:12.957Z,46.43
2023-03-17T08:32:41.420Z,45.27
2023-03-17T08:35:15.128Z,43.29
2023-03-17T08:37:43.987Z,43.58
2023-03-17T08:40:13.913Z,45.17
2023-03-17T08:42:42.488Z,42.19
2023-03-17T08:45:13.260Z,42.58
2023-03-17T08:47:41.861Z,43.92
2023-03-17T08:50:15.595Z,44.78
2023-03-17T08:52:44.041Z,45.46
2023-03-17T08:55:13.818Z,45.28
2023-03-17T08:57:43.089Z,45.38
2023-03-17T09:00:16.078Z,43.15
2023-03-17T09:02:45.320Z,44.24
2023-03-17T09:05:15.414Z,41.75
2023-03-17T09:07:44.561Z,41.75
2023-03-17T09:10:14.912Z,41.44
2023-03-17T09:12:43.556Z,42.53
2023-03-17T09:15:14.205Z,41.33
2023-03-17T09:17:43.785Z,41.47
2023-03-17T09:20:13.818Z,41.49
2023-03-17T09:22:42.198Z,41.01
2023-03-17T09:25:11.059Z,41.73
2023-03-17T09:27:39.443Z,42.56
2023-03-17T09:30:10.473Z,42.27
2023-03-17T09:32:40.493Z,42.93
2023-03-17T09:35:09.834Z,43.26
2023-03-17T09:37:39.028Z,43.72
2023-03-17T09:40:09.315Z,45.14
2023-03-17T09:42:54.703Z,47.50
2023-03-17T09:45:34.436Z,45.78
2023-03-17T09:48:36.796Z,46.26
2023-03-17T09:51:08.633Z,46.22
2023-03-17T09:53:42.933Z,46.76
2023-03-17T09:56:16.315Z,46.22
2023-03-17T09:58:52.595Z,45.98
2023-03-17T10:01:21.615Z,46.64
2023-03-17T10:03:51.622Z,46.58
2023-03-17T10:06:34.591Z,46.35
2023-03-17T10:09:15.291Z,45.90
2023-03-17T10:11:46.011Z,46.53
2023-03-17T10:14:32.389Z,46.50
2023-03-17T10:17:05.812Z,46.09
2023-03-17T10:19:42.297Z,46.63
2023-03-17T10:22:21.818Z,47.14
2023-03-17T10:24:56.063Z,46.69
2023-03-17T10:27:24.902Z,46.99
2023-03-17T10:29:53.375Z,47.03
2023-03-17T10:32:22.527Z,47.50
2023-03-17T10:34:52.369Z,46.79
2023-03-17T10:37:24.857Z,46.80
2023-03-17T10:39:56.157Z,47.45
2023-03-17T10:42:27.544Z,46.92
2023-03-17T10:44:58.275Z,45.29
2023-03-17T10:47:39.669Z,44.99
2023-03-17T10:50:23.094Z,45.16
2023-03-17T10:52:57.870Z,44.58
2023-03-17T10:55:31.067Z,45.24
2023-03-17T10:58:06.825Z,44.34
2023-03-17T11:00:38.738Z,44.85
2023-03-17T11:03:17.762Z,44.17
2023-03-17T11:05:57.823Z,43.43
2023-03-17T11:08:26.235Z,42.59
2023-03-17T11:10:57.718Z,43.37
2023-03-17T11:13:31.269Z,41.97
2023-03-17T11:16:11.640Z,42.08
2023-03-17T11:18:41.943Z,42.57
2023-03-17T11:21:16.557Z,41.51
2023-03-17T11:23:53.947Z,41.51
2023-03-17T11:26:53.761Z,41.78
2023-03-17T11:29:29.999Z,42.01
2023-03-17T11:32:10.976Z,41.67
2023-03-17T11:34:57.078Z,42.03
2023-03-17T11:37:45.484Z,41.75
2023-03-17T11:40:21.643Z,42.05
2023-03-17T11:43:14.617Z,42.22
2023-03-17T11:45:50.827Z,42.84
2023-03-17T11:48:41.330Z,41.96
2023-03-17T11:51:20.288Z,42.28
2023-03-17T11:54:06.621Z,42.52
2023-03-17T11:56:43.445Z,42.48
2023-03-17T11:59:27.066Z,41.71
2023-03-17T12:02:04.800Z,41.72
2023-03-17T12:04:39.183Z,41.75
2023-03-17T12:07:20.678Z,41.19
2023-03-17T12:10:00.253Z,40.39
2023-03-17T12:12:34.148Z,40.88
2023-03-17T12:15:05.345Z,41.20
2023-03-17T12:17:48.700Z,41.17
2023-03-17T12:20:21.099Z,41.18
2023-03-17T12:22:57.121Z,40.98
2023-03-17T12:25:34.034Z,42.13
2023-03-17T12:28:09.407Z,41.81
2023-03-17T12:30:49.347Z,42.27
2023-03-17T12:33:26.067Z,41.83
2023-03-17T12:36:02.608Z,41.77
2023-03-17T12:38:37.932Z,41.98
2023-03-17T12:41:38.692Z,42.33
2023-03-17T12:44:19.033Z,42.35
2023-03-17T12:47:24.166Z,43.07
2023-03-17T12:50:27.088Z,43.25
2023-03-17T12:53:29.533Z,44.07
2023-03-17T12:56:08.178Z,44.06
2023-03-17T12:58:41.901Z,44.44
2023-03-17T13:01:21.424Z,43.69
2023-03-17T13:04:04.689Z,43.19
2023-03-17T13:06:40.948Z,43.76
2023-03-17T13:09:45.815Z,43.59
2023-03-17T13:12:57.306Z,44.32
2023-03-17T13:15:51.272Z,43.87
2023-03-17T13:18:48.487Z,43.50
2023-03-17T13:21:26.485Z,44.28
2023-03-17T13:24:21.040Z,44.50
2023-03-17T13:27:00.913Z,44.37
2023-03-17T13:29:48.706Z,43.58
2023-03-17T13:32:39.732Z,43.89
2023-03-17T13:35:38.693Z,43.57
2023-03-17T13:38:43.732Z,44.02
2023-03-17T13:41:49.743Z,43.61
2023-03-17T13:44:37.726Z,44.22
2023-03-17T13:47:33.489Z,43.06
2023-03-17T13:50:09.662Z,44.73
2023-03-17T13:52:43.553Z,46.30
2023-03-17T13:55:39.540Z,45.78
2023-03-17T13:58:26.439Z,45.75
2023-03-17T14:01:03.840Z,45.99
2023-03-17T14:03:41.435Z,45.52
2023-03-17T14:06:13.710Z,47.17
2023-03-17T14:08:48.246Z,47.00
2023-03-17T14:11:29.427Z,46.57
2023-03-17T14:14:32.234Z,46.13
2023-03-17T14:17:10.919Z,46.56
2023-03-17T14:19:41.825Z,45.83
2023-03-17T14:22:24.775Z,45.78
2023-03-17T14:24:54.732Z,47.00
2023-03-17T14:27:25.075Z,47.15
2023-03-17T14:29:53.904Z,47.37
2023-03-17T14:32:25.402Z,47.04
2023-03-17T14:34:59.598Z,46.57
2023-03-17T14:37:30.265Z,46.70
2023-03-17T14:40:00.229Z,45.90
2023-03-17T14:42:31.127Z,46.52
2023-03-17T14:45:05.588Z,45.83
2023-03-17T14:47:40.138Z,45.29
2023-03-17T14:50:18.089Z,46.47
2023-03-17T14:52:47.881Z,46.51
2023-03-17T14:55:19.773Z,46.41
2023-03-17T14:57:52.609Z,47.37
2023-03-17T15:00:36.541Z,45.21
2023-03-17T15:03:17.722Z,47.28
2023-03-17T15:05:47.462Z,45.14
2023-03-17T15:08:43.311Z,44.94
2023-03-17T15:11:21.518Z,45.97
2023-03-17T15:13:52.557Z,46.61
2023-03-17T15:16:25.845Z,45.49
2023-03-17T15:19:08.422Z,46.49
2023-03-17T15:21:41.404Z,47.08
2023-03-17T15:24:40.031Z,48.11
2023-03-17T15:27:15.561Z,47.48
2023-03-17T15:29:44.382Z,47.70
2023-03-17T15:32:15.811Z,47.58
2023-03-17T15:34:44.275Z,48.88
2023-03-17T15:37:21.659Z,49.06
2023-03-17T15:39:52.939Z,47.92
2023-03-17T15:42:25.715Z,48.26
2023-03-17T15:44:54.860Z,49.00
2023-03-17T15:47:27.600Z,49.15
2023-03-17T15:50:00.085Z,48.37
2023-03-17T15:52:29.641Z,48.80
2023-03-17T15:55:00.984Z,49.03
2023-03-17T15:57:29.355Z,49.03
2023-03-17T15:59:57.831Z,50.20
2023-03-17T16:02:31.825Z,50.87
2023-03-17T16:05:03.064Z,50.20
2023-03-17T16:07:31.495Z,50.67
2023-03-17T16:10:01.247Z,51.32
2023-03-17T16:12:29.892Z,51.52
2023-03-17T16:14:58.350Z,52.07
2023-03-17T16:17:30.088Z,51.61
2023-03-17T16:19:59.720Z,51.35
2023-03-17T16:22:41.864Z,51.84
2023-03-17T16:25:26.651Z,51.53
2023-03-17T16:27:57.748Z,52.35
2023-03-17T16:30:28.723Z,52.90
2023-03-17T16:33:02.209Z,52.04
2023-03-17T16:35:31.204Z,51.18
2023-03-17T16:37:59.610Z,51.67
2023-03-17T16:40:35.567Z,51.12
2023-03-17T16:43:12.894Z,51.31
2023-03-17T16:45:44.352Z,51.46
2023-03-17T16:48:15.417Z,51.10
2023-03-17T16:50:44.473Z,51.67
2023-03-17T16:53:13.332Z,52.21
2023-03-17T16:55:43.636Z,52.53
2023-03-17T16:58:19.704Z,52.24
2023-03-17T17:00:49.741Z,52.11
2023-03-17T17:03:18.478Z,53.26
2023-03-17T17:05:47.676Z,55.00
2023-03-17T17:08:16.259Z,53.68
2023-03-17T17:10:46.170Z,54.07
2023-03-17T17:13:14.745Z,54.24
2023-03-17T17:15:43.882Z,53.53
2023-03-17T17:18:17.684Z,54.90
2023-03-17T17:20:47.884Z,55.19
2023-03-17T17:23:19.014Z,55.04
2023-03-17T17:25:49.700Z,56.02
2023-03-17T17:28:22.417Z,54.64
2023-03-17T17:30:51.854Z,54.80
2023-03-17T17:33:21.216Z,54.68
2023-03-17T17:35:50.851Z,55.43
2023-03-17T17:38:23.666Z,54.41
2023-03-17T17:40:53.893Z,53.35
2023-03-17T17:43:22.358Z,52.62
2023-03-17T17:45:51.145Z,51.49
2023-03-17T17:48:23.512Z,51.67
2023-03-17T17:50:53.162Z,52.15
2023-03-17T17:53:21.822Z,52.46
2023-03-17T17:55:52.248Z,53.52
2023-03-17T17:58:23.363Z,53.98
2023-03-17T18:00:55.069Z,54.30
2023-03-17T18:03:25.276Z,55.40
2023-03-17T18:05:53.924Z,55.62
2023-03-17T18:08:22.476Z,55.98
2023-03-17T18:10:52.628Z,57.32
2023-03-17T18:13:21.280Z,57.71
2023-03-17T18:15:49.733Z,58.19
2023-03-17T18:18:18.146Z,58.48
2023-03-17T18:20:46.618Z,57.82
2023-03-17T18:23:16.043Z,58.50
2023-03-17T18:25:44.461Z,58.27
2023-03-17T18:28:14.213Z,58.64
2023-03-17T18:30:42.962Z,58.26
2023-03-17T18:33:16.346Z,58.76
2023-03-17T18:35:47.824Z,58.29
2023-03-17T18:38:16.459Z,58.34
2023-03-17T18:40:45.366Z,58.24
2023-03-17T18:43:15.442Z,59.59
2023-03-17T18:45:44.613Z,59.35
2023-03-17T18:48:13.039Z,60.75
2023-03-17T18:50:41.453Z,60.63
2023-03-17T18:53:09.826Z,60.32
2023-03-17T18:55:39.387Z,60.64
2023-03-17T18:58:07.853Z,61.96
2023-03-17T19:00:37.631Z,62.09
2023-03-17T19:03:06.267Z,61.69
2023-03-17T19:05:39.599Z,61.29
2023-03-17T19:08:08.844Z,61.51
2023-03-17T19:10:37.201Z,62.20
2023-03-17T19:13:06.180Z,63.33
2023-03-17T19:15:35.391Z,63.27
2023-03-17T19:18:05.327Z,63.96
2023-03-17T19:20:34.536Z,62.43
2023-03-17T19:23:04.419Z,62.16
2023-03-17T19:25:32.797Z,62.23
2023-03-17T19:28:03.198Z,62.58
2023-03-17T19:30:31.917Z,62.31
2023-03-17T19:33:00.783Z,62.66
2023-03-17T19:35:30.560Z,62.73
2023-03-17T19:37:59.052Z,63.03
2023-03-17T19:40:27.634Z,63.45
2023-03-17T19:42:56.133Z,64.29
2023-03-17T19:45:26.135Z,63.21
2023-03-17T19:47:54.591Z,63.98
2023-03-17T19:50:23.001Z,63.89
2023-03-17T19:52:53.299Z,64.37
2023-03-17T19:55:24.434Z,64.40
2023-03-17T19:57:52.922Z,64.87
2023-03-17T20:00:22.614Z,64.23
2023-03-17T20:02:51.705Z,65.00
2023-03-17T20:05:20.713Z,64.98
2023-03-17T20:07:49.172Z,64.96
2023-03-17T20:10:19.373Z,65.50
2023-03-17T20:12:47.710Z,64.63
2023-03-17T20:15:16.549Z,64.63
2023-03-17T20:17:45.179Z,65.45
2023-03-17T20:20:15.396Z,64.67
2023-03-17T20:22:44.045Z,64.23
2023-03-17T20:25:12.983Z,64.45
2023-03-17T20:27:43.036Z,64.59
2023-03-17T20:30:13.306Z,64.79
2023-03-17T20:32:41.839Z,65.08
2023-03-17T20:35:11.789Z,65.01
2023-03-17T20:37:40.480Z,65.46
2023-03-17T20:40:10.827Z,65.10
2023-03-17T20:42:39.688Z,64.72
2023-03-17T20:45:10.276Z,65.12
2023-03-17T20:47:38.695Z,64.62
2023-03-17T20:50:08.900Z,65.12
2023-03-17T20:52:38.202Z,65.11
2023-03-17T20:55:08.513Z,63.87
2023-03-17T20:57:37.971Z,62.89
2023-03-17T21:00:10.518Z,63.06
2023-03-17T21:02:39.015Z,63.43
2023-03-17T21:05:07.955Z,63.44
2023-03-17T21:07:36.544Z,64.19
2023-03-17T21:10:05.233Z,63.40
2023-03-17T21:12:33.608Z,63.45
2023-03-17T21:15:02.025Z,63.47
2023-03-17T21:17:32.619Z,63.91
2023-03-17T21:20:01.832Z,64.01
2023-03-17T21:22:31.799Z,65.15
2023-03-17T21:25:00.458Z,65.89
2023-03-17T21:27:30.064Z,67.02
2023-03-17T21:29:58.589Z,67.30
2023-03-17T21:32:27.129Z,67.31
2023-03-17T21:34:57.055Z,67.74
2023-03-17T21:37:25.626Z,67.55
2023-03-17T21:39:54.246Z,67.42
2023-03-17T21:42:22.694Z,67.37
2023-03-17T21:44:52.095Z,67.38
2023-03-17T21:47:20.709Z,67.21
2023-03-17T21:49:49.806Z,67.83
2023-03-17T21:52:20.967Z,68.47
2023-03-17T21:54:50.409Z,68.53
2023-03-17T21:57:18.841Z,68.86
2023-03-17T21:59:47.657Z,69.14
2023-03-17T22:02:17.621Z,68.70
2023-03-17T22:04:46.966Z,68.91
2023-03-17T22:07:16.607Z,68.68
2023-03-17T22:09:47.086Z,69.11
2023-03-17T22:12:15.694Z,69.44
2023-03-17T22:14:44.259Z,69.79
2023-03-17T22:17:13.198Z,69.83
2023-03-17T22:19:44.015Z,69.82
2023-03-17T22:22:12.864Z,69.91
2023-03-17T22:24:41.784Z,70.36
2023-03-17T22:27:11.691Z,70.08
2023-03-17T22:29:40.156Z,70.24
2023-03-17T22:32:09.585Z,70.84
2023-03-17T22:34:38.682Z,71.21
2023-03-17T22:37:07.667Z,71.48
2023-03-17T22:39:36.037Z,71.73
2023-03-17T22:42:04.634Z,71.48
2023-03-17T22:44:34.508Z,71.83
2023-03-17T22:47:02.912Z,71.98
2023-03-17T22:49:31.454Z,72.05
2023-03-17T22:51:59.848Z,72.41
2023-03-17T22:54:28.249Z,72.59
2023-03-17T22:56:57.043Z,72.62
2023-03-17T22:59:25.530Z,72.91
2023-03-17T23:01:55.638Z,73.49
2023-03-17T23:04:24.594Z,73.21
2023-03-17T23:06:53.531Z,72.72
2023-03-17T23:09:23.153Z,72.54
2023-03-17T23:11:51.714Z,72.55
2023-03-17T23:14:20.152Z,72.55
2023-03-17T23:16:48.777Z,72.99
2023-03-17T23:19:18.612Z,72.50
2023-03-17T23:21:47.380Z,72.53
2023-03-17T23:24:15.690Z,72.52
2023-03-17T23:26:44.578Z,72.38
2023-03-17T23:29:13.162Z,72.87
2023-03-17T23:31:41.696Z,71.31
2023-03-17T23:34:10.824Z,71.79
2023-03-17T23:36:40.686Z,71.19
2023-03-17T23:39:10.258Z,70.26
2023-03-17T23:41:39.198Z,70.08
2023-03-17T23:44:07.970Z,69.78
2023-03-17T23:46:36.665Z,69.67
2023-03-17T23:49:07.243Z,69.03
2023-03-17T23:51:36.087Z,68.79
2023-03-17T23:54:07.759Z,68.64
2023-03-17T23:56:36.302Z,68.28
2023-03-17T23:59:07.466Z,68.46
